createdAt,value
2022-08-30T00:02:18.406Z,61.12
2022-08-30T00:04:45.219Z,61.09
2022-08-30T00:07:11.978Z,60.84
2022-08-30T00:09:38.667Z,61.41
2022-08-30T00:12:05.549Z,61.26
2022-08-30T00:14:32.359Z,62.12
2022-08-30T00:16:58.973Z,62.59
2022-08-30T00:19:25.679Z,63.39
2022-08-30T00:21:52.478Z,62.61
2022-08-30T00:24:19.130Z,62.31
2022-08-30T00:26:45.771Z,62.02
2022-08-30T00:29:12.437Z,61.94
2022-08-30T00:31:39.072Z,62.62
2022-08-30T00:34:05.721Z,62.49
2022-08-30T00:36:32.421Z,62.00
2022-08-30T00:38:59.080Z,61.35
2022-08-30T00:41:25.760Z,61.06
2022-08-30T00:43:52.429Z,61.03
2022-08-30T00:46:19.218Z,61.10
2022-08-30T00:48:49.226Z,61.63
2022-08-30T00:51:17.161Z,62.15
2022-08-30T00:53:49.107Z,62.54
2022-08-30T00:56:18.040Z,62.28
2022-08-30T00:58:50.292Z,61.56
2022-08-30T01:01:18.228Z,60.94
2022-08-30T01:03:45.402Z,61.12
2022-08-30T01:06:15.692Z,61.18
2022-08-30T01:08:43.830Z,61.21
2022-08-30T01:11:12.804Z,61.74
2022-08-30T01:13:40.759Z,62.47
2022-08-30T01:16:08.544Z,62.66
2022-08-30T01:18:37.123Z,63.48
2022-08-30T01:21:10.360Z,64.04
2022-08-30T01:23:41.253Z,63.42
2022-08-30T01:26:10.360Z,64.32
2022-08-30T01:28:40.101Z,65.89
2022-08-30T01:31:06.852Z,66.43
2022-08-30T01:33:33.680Z,66.68
2022-08-30T01:36:04.394Z,66.38
2022-08-30T01:38:36.774Z,65.77
2022-08-30T01:41:24.303Z,64.75
2022-08-30T01:43:53.180Z,64.27
2022-08-30T01:46:24.569Z,63.29
2022-08-30T01:48:54.377Z,63.25
2022-08-30T01:51:23.467Z,63.05
2022-08-30T01:53:50.276Z,62.82
2022-08-30T01:56:17.861Z,62.85
2022-08-30T01:58:45.023Z,62.69
2022-08-30T02:01:14.259Z,62.44
2022-08-30T02:03:43.781Z,62.62
2022-08-30T02:06:16.433Z,62.00
2022-08-30T02:08:43.770Z,62.38
2022-08-30T02:11:11.815Z,62.38
2022-08-30T02:13:40.929Z,62.47
2022-08-30T02:16:10.187Z,62.27
2022-08-30T02:18:39.337Z,62.09
2022-08-30T02:21:07.430Z,61.80
2022-08-30T02:23:34.455Z,61.73
2022-08-30T02:26:01.506Z,62.46
2022-08-30T02:28:28.431Z,62.51
2022-08-30T02:30:55.130Z,63.99
2022-08-30T02:33:21.881Z,64.20
2022-08-30T02:35:48.620Z,63.79
2022-08-30T02:38:15.909Z,62.76
2022-08-30T02:40:46.801Z,63.66
2022-08-30T02:43:13.491Z,63.94
2022-08-30T02:45:40.182Z,64.07
2022-08-30T02:48:07.020Z,64.71
2022-08-30T02:50:33.992Z,64.85
2022-08-30T02:53:00.825Z,64.14
2022-08-30T02:55:27.473Z,63.42
2022-08-30T02:57:54.091Z,63.45
2022-08-30T03:00:21.328Z,63.23
2022-08-30T03:02:48.269Z,62.70
2022-08-30T03:05:16.101Z,62.83
2022-08-30T03:07:43.591Z,62.95
2022-08-30T03:10:11.006Z,62.30
2022-08-30T03:12:38.247Z,62.29
2022-08-30T03:15:10.050Z,61.85
2022-08-30T03:17:36.778Z,61.63
2022-08-30T03:20:04.522Z,61.90
2022-08-30T03:22:31.340Z,61.98
2022-08-30T03:24:59.674Z,62.20
2022-08-30T03:27:26.556Z,61.94
2022-08-30T03:29:53.154Z,62.42
2022-08-30T03:32:19.873Z,62.48
2022-08-30T03:34:46.751Z,62.01
2022-08-30T03:37:13.498Z,62.65
2022-08-30T03:39:40.170Z,63.39
2022-08-30T03:42:06.952Z,63.37
2022-08-30T03:44:33.629Z,63.96
2022-08-30T03:47:00.764Z,64.03
2022-08-30T03:49:27.474Z,63.46
2022-08-30T03:51:54.213Z,62.97
2022-08-30T03:54:20.864Z,62.65
2022-08-30T03:56:47.545Z,63.29
2022-08-30T03:59:14.358Z,64.13
2022-08-30T04:01:42.138Z,63.49
2022-08-30T04:04:09.194Z,62.87
2022-08-30T04:06:35.943Z,63.73
2022-08-30T04:09:02.771Z,63.46
2022-08-30T04:11:29.545Z,62.99
2022-08-30T04:13:56.893Z,63.78
2022-08-30T04:16:25.369Z,63.36
2022-08-30T04:18:52.461Z,63.39
2022-08-30T04:21:19.410Z,63.21
2022-08-30T04:23:47.362Z,63.48
2022-08-30T04:26:14.071Z,63.26
2022-08-30T04:28:40.789Z,63.35
2022-08-30T04:31:12.742Z,63.67
2022-08-30T04:33:42.594Z,64.13
2022-08-30T04:36:10.989Z,64.36
2022-08-30T04:38:39.324Z,64.43
2022-08-30T04:41:16.471Z,64.66
2022-08-30T04:43:44.736Z,64.74
2022-08-30T04:46:14.467Z,63.35
2022-08-30T04:48:41.295Z,63.67
2022-08-30T04:51:10.805Z,63.78
2022-08-30T04:53:37.712Z,65.14
2022-08-30T04:56:16.336Z,66.19
2022-08-30T04:58:44.698Z,65.96
2022-08-30T05:01:23.693Z,65.00
2022-08-30T05:03:52.611Z,64.88
2022-08-30T05:06:20.786Z,66.78
2022-08-30T05:08:47.890Z,65.10
2022-08-30T05:11:16.574Z,65.75
2022-08-30T05:13:44.675Z,66.49
2022-08-30T05:16:13.413Z,66.02
2022-08-30T05:18:40.179Z,66.74
2022-08-30T05:21:11.800Z,65.74
2022-08-30T05:23:39.649Z,65.88
2022-08-30T05:26:15.517Z,66.26
2022-08-30T05:28:42.364Z,67.23
2022-08-30T05:31:19.243Z,65.79
2022-08-30T05:33:47.106Z,65.72
2022-08-30T05:36:15.780Z,65.93
2022-08-30T05:38:42.889Z,66.27
2022-08-30T05:41:11.192Z,65.50
2022-08-30T05:43:39.034Z,66.62
2022-08-30T05:46:11.773Z,66.31
2022-08-30T05:48:40.064Z,65.68
2022-08-30T05:51:11.491Z,67.89
2022-08-30T05:53:39.602Z,68.65
2022-08-30T05:56:09.644Z,68.85
2022-08-30T05:58:37.066Z,68.01
2022-08-30T06:01:04.319Z,67.49
2022-08-30T06:03:32.963Z,68.16
2022-08-30T06:06:00.901Z,67.75
2022-08-30T06:08:27.592Z,67.28
2022-08-30T06:10:54.275Z,66.59
2022-08-30T06:13:20.994Z,66.63
2022-08-30T06:15:47.895Z,66.72
2022-08-30T06:18:14.780Z,67.03
2022-08-30T06:20:50.216Z,67.01
2022-08-30T06:23:18.004Z,65.71
2022-08-30T06:25:45.196Z,67.79
2022-08-30T06:28:12.637Z,68.83
2022-08-30T06:30:41.469Z,68.83
2022-08-30T06:33:08.247Z,66.58
2022-08-30T06:35:42.174Z,65.18
2022-08-30T06:38:13.733Z,65.64
2022-08-30T06:40:40.526Z,67.28
2022-08-30T06:43:07.381Z,65.56
2022-08-30T06:45:35.287Z,64.71
2022-08-30T06:48:02.202Z,66.25
2022-08-30T06:50:28.871Z,68.09
2022-08-30T06:52:55.778Z,70.83
2022-08-30T06:55:23.874Z,70.68
2022-08-30T06:57:50.676Z,71.48
2022-08-30T07:00:17.781Z,72.89
2022-08-30T07:02:44.699Z,72.01
2022-08-30T07:05:15.411Z,71.64
2022-08-30T07:07:44.887Z,71.44
2022-08-30T07:10:11.812Z,72.33
2022-08-30T07:12:38.519Z,72.71
2022-08-30T07:15:06.077Z,72.99
2022-08-30T07:17:53.483Z,73.33
2022-08-30T07:20:21.599Z,71.16
2022-08-30T07:22:49.397Z,72.28
2022-08-30T07:25:16.416Z,71.93
2022-08-30T07:27:46.599Z,71.41
2022-08-30T07:30:14.103Z,72.20
2022-08-30T07:32:41.160Z,71.49
2022-08-30T07:35:08.172Z,71.04
2022-08-30T07:37:34.978Z,72.62
2022-08-30T07:40:02.377Z,71.52
2022-08-30T07:42:29.182Z,69.41
2022-08-30T07:44:56.949Z,70.64
2022-08-30T07:47:23.754Z,69.78
2022-08-30T07:49:50.445Z,68.34
2022-08-30T07:52:17.240Z,70.37
2022-08-30T07:54:44.017Z,69.98
2022-08-30T07:57:12.041Z,70.41
2022-08-30T07:59:43.067Z,70.38
2022-08-30T08:02:09.797Z,69.25
2022-08-30T08:04:36.563Z,70.95
2022-08-30T08:07:06.043Z,70.66
2022-08-30T08:09:34.125Z,70.69
2022-08-30T08:12:00.831Z,69.37
2022-08-30T08:14:28.467Z,69.80
2022-08-30T08:16:55.132Z,68.99
2022-08-30T08:19:21.980Z,66.64
2022-08-30T08:21:59.369Z,65.55
2022-08-30T08:24:36.330Z,67.84
2022-08-30T08:27:03.036Z,68.20
2022-08-30T08:29:30.121Z,69.67
2022-08-30T08:31:57.985Z,69.09
2022-08-30T08:34:24.842Z,70.09
2022-08-30T08:36:51.773Z,68.86
2022-08-30T08:39:18.794Z,67.03
2022-08-30T08:42:16.635Z,68.26
2022-08-30T08:44:51.608Z,69.45
2022-08-30T08:47:45.076Z,69.06
2022-08-30T08:50:18.630Z,68.57
2022-08-30T08:53:45.955Z,70.55
2022-08-30T08:56:15.644Z,68.49
2022-08-30T08:58:51.687Z,68.95
2022-08-30T09:01:22.253Z,67.94
2022-08-30T09:03:50.225Z,68.09
2022-08-30T09:06:39.693Z,68.90
2022-08-30T09:09:13.413Z,68.93
2022-08-30T09:11:44.290Z,70.00
2022-08-30T09:14:19.323Z,70.08
2022-08-30T09:16:50.319Z,71.37
2022-08-30T09:19:40.055Z,69.00
2022-08-30T09:22:31.716Z,69.82
2022-08-30T09:25:06.698Z,69.99
2022-08-30T09:27:45.448Z,68.78
2022-08-30T09:30:23.521Z,69.61
2022-08-30T09:32:54.277Z,71.16
2022-08-30T09:35:52.115Z,69.51
2022-08-30T09:38:32.776Z,68.41
2022-08-30T09:41:02.547Z,69.14
2022-08-30T09:43:34.258Z,70.29
2022-08-30T09:46:01.422Z,68.84
2022-08-30T09:48:45.919Z,68.00
2022-08-30T09:51:15.350Z,68.17
2022-08-30T09:54:07.117Z,66.44
2022-08-30T09:56:40.528Z,66.33
2022-08-30T09:59:22.142Z,66.47
2022-08-30T10:01:59.226Z,67.01
2022-08-30T10:05:31.117Z,64.72
2022-08-30T10:08:18.011Z,66.37
2022-08-30T10:10:47.446Z,65.05
2022-08-30T10:13:33.738Z,66.47
2022-08-30T10:16:17.251Z,64.21
2022-08-30T10:19:04.255Z,65.07
2022-08-30T10:21:41.553Z,63.34
2022-08-30T10:24:20.798Z,64.81
2022-08-30T10:26:57.585Z,66.73
2022-08-30T10:29:31.536Z,63.26
2022-08-30T10:32:03.269Z,61.41
2022-08-30T10:34:41.865Z,60.68
2022-08-30T10:37:17.463Z,62.87
2022-08-30T10:39:52.064Z,63.72
2022-08-30T10:42:27.993Z,62.36
2022-08-30T10:45:08.454Z,62.98
2022-08-30T10:47:50.364Z,59.84
2022-08-30T10:50:21.631Z,57.47
2022-08-30T10:53:02.242Z,58.38
2022-08-30T10:55:35.581Z,58.37
2022-08-30T10:58:05.534Z,58.91
2022-08-30T11:00:45.264Z,57.65
2022-08-30T11:03:46.024Z,58.19
2022-08-30T11:06:25.211Z,57.15
2022-08-30T11:09:10.344Z,58.43
2022-08-30T11:11:45.547Z,59.40
2022-08-30T11:14:17.130Z,58.82
2022-08-30T11:16:48.488Z,58.45
2022-08-30T11:19:24.638Z,58.04
2022-08-30T11:21:53.681Z,56.17
2022-08-30T11:24:25.537Z,57.65
2022-08-30T11:26:57.758Z,58.46
2022-08-30T11:29:30.917Z,58.28
2022-08-30T11:32:20.146Z,60.09
2022-08-30T11:34:46.732Z,59.77
2022-08-30T11:37:54.583Z,59.76
2022-08-30T11:40:24.477Z,57.97
2022-08-30T11:42:54.499Z,58.61
2022-08-30T11:45:25.254Z,58.85
2022-08-30T11:47:59.653Z,56.85
2022-08-30T11:50:48.563Z,56.83
2022-08-30T11:53:37.327Z,57.68
2022-08-30T11:56:16.742Z,58.32
2022-08-30T11:58:57.359Z,57.98
2022-08-30T12:01:50.603Z,57.00
2022-08-30T12:04:26.321Z,57.78
2022-08-30T12:07:05.579Z,58.93
2022-08-30T12:09:35.200Z,58.64
2022-08-30T12:12:06.393Z,58.44
2022-08-30T12:14:41.057Z,58.74
2022-08-30T12:17:41.100Z,56.67
2022-08-30T12:20:24.953Z,57.62
2022-08-30T12:22:53.439Z,55.02
2022-08-30T12:25:34.144Z,54.86
2022-08-30T12:28:24.162Z,53.91
2022-08-30T12:30:51.822Z,52.29
2022-08-30T12:33:41.733Z,53.79
2022-08-30T12:36:14.228Z,50.59
2022-08-30T12:38:41.644Z,47.96
2022-08-30T12:41:08.672Z,47.70
2022-08-30T12:43:47.344Z,49.25
2022-08-30T12:46:19.164Z,45.79
2022-08-30T12:48:48.198Z,46.58
2022-08-30T12:51:38.255Z,47.31
2022-08-30T12:54:21.257Z,44.23
2022-08-30T12:56:50.482Z,43.25
2022-08-30T12:59:40.591Z,42.77
2022-08-30T13:02:20.529Z,42.90
2022-08-30T13:05:47.752Z,43.87
2022-08-30T13:08:25.279Z,45.95
2022-08-30T13:11:24.936Z,50.85
2022-08-30T13:14:30.010Z,52.60
2022-08-30T13:17:26.191Z,52.65
2022-08-30T13:20:01.053Z,53.82
2022-08-30T13:22:38.331Z,54.17
2022-08-30T13:25:06.432Z,53.41
2022-08-30T13:27:36.906Z,52.45
2022-08-30T13:30:13.477Z,51.61
2022-08-30T13:32:40.871Z,52.78
2022-08-30T13:35:08.557Z,52.35
2022-08-30T13:37:51.932Z,51.35
2022-08-30T13:40:21.308Z,53.70
2022-08-30T13:42:48.627Z,53.67
2022-08-30T13:48:04.182Z,51.48
2022-08-30T13:50:30.939Z,50.69
2022-08-30T13:52:57.981Z,51.42
2022-08-30T13:55:24.733Z,50.82
2022-08-30T13:57:55.529Z,50.92
2022-08-30T14:00:25.004Z,49.04
2022-08-30T14:02:57.583Z,47.64
2022-08-30T14:05:49.560Z,48.69
2022-08-30T14:11:18.590Z,49.71
2022-08-30T14:16:35.479Z,48.12
2022-08-30T14:19:02.485Z,48.14
2022-08-30T14:21:29.400Z,47.69
2022-08-30T14:23:58.838Z,47.34
2022-08-30T14:26:34.304Z,46.72
2022-08-30T14:29:03.647Z,44.08
2022-08-30T14:31:32.931Z,44.52
2022-08-30T14:34:04.131Z,44.83
2022-08-30T14:36:33.131Z,46.13
2022-08-30T14:39:01.073Z,46.03
2022-08-30T14:41:27.794Z,46.67
2022-08-30T14:43:54.528Z,46.43
2022-08-30T14:46:22.143Z,46.79
2022-08-30T14:48:50.347Z,47.18
2022-08-30T14:51:19.719Z,46.91
2022-08-30T14:53:47.533Z,46.59
2022-08-30T14:56:19.441Z,46.88
2022-08-30T14:58:52.148Z,47.60
2022-08-30T15:01:20.157Z,47.72
2022-08-30T15:03:47.063Z,46.48
2022-08-30T15:06:14.044Z,46.28
2022-08-30T15:08:41.219Z,45.92
2022-08-30T15:11:14.438Z,46.14
2022-08-30T15:13:44.369Z,46.26
2022-08-30T15:16:33.840Z,45.43
2022-08-30T15:19:02.319Z,45.75
2022-08-30T15:21:32.978Z,47.02
2022-08-30T15:24:02.261Z,48.39
2022-08-30T15:26:29.383Z,48.94
2022-08-30T15:28:56.919Z,48.48
2022-08-30T15:31:28.193Z,48.00
2022-08-30T15:33:55.481Z,47.42
2022-08-30T15:36:24.075Z,47.34
2022-08-30T15:38:55.381Z,48.26
2022-08-30T15:41:22.936Z,49.33
2022-08-30T15:43:50.411Z,48.48
2022-08-30T15:46:22.665Z,48.40
2022-08-30T15:48:51.970Z,50.47
2022-08-30T15:51:19.257Z,51.33
2022-08-30T15:53:46.586Z,50.74
2022-08-30T15:56:13.808Z,49.59
2022-08-30T15:58:41.567Z,48.40
2022-08-30T16:01:09.263Z,50.64
2022-08-30T16:03:37.779Z,51.24
2022-08-30T16:06:04.839Z,52.18
2022-08-30T16:08:31.471Z,51.44
2022-08-30T16:10:58.185Z,51.02
2022-08-30T16:13:24.817Z,50.97
2022-08-30T16:15:51.530Z,50.91
2022-08-30T16:18:18.251Z,52.11
2022-08-30T16:20:45.032Z,53.30
2022-08-30T16:23:11.900Z,53.31
2022-08-30T16:25:40.815Z,53.12
2022-08-30T16:28:09.502Z,53.66
2022-08-30T16:30:36.684Z,53.73
2022-08-30T16:33:03.488Z,53.63
2022-08-30T16:35:30.156Z,54.61
2022-08-30T16:37:56.788Z,55.68
2022-08-30T16:40:23.620Z,55.33
2022-08-30T16:42:50.783Z,55.50
2022-08-30T16:45:17.958Z,55.47
2022-08-30T16:47:46.004Z,55.27
2022-08-30T16:50:13.090Z,55.26
2022-08-30T16:52:44.018Z,55.66
2022-08-30T16:55:10.963Z,55.92
2022-08-30T16:57:38.776Z,58.90
2022-08-30T17:00:13.363Z,60.40
2022-08-30T17:02:41.020Z,59.47
2022-08-30T17:05:14.763Z,58.43
2022-08-30T17:07:42.058Z,57.93
2022-08-30T17:10:09.041Z,57.25
2022-08-30T17:12:35.794Z,57.10
2022-08-30T17:15:05.596Z,56.54
2022-08-30T17:17:32.862Z,57.69
2022-08-30T17:19:59.520Z,58.04
2022-08-30T17:22:26.280Z,57.89
2022-08-30T17:24:53.447Z,57.94
2022-08-30T17:27:20.185Z,57.99
2022-08-30T17:29:47.871Z,58.15
2022-08-30T17:32:14.750Z,58.76
2022-08-30T17:34:41.417Z,62.33
2022-08-30T17:37:08.638Z,61.40
2022-08-30T17:39:36.499Z,62.17
2022-08-30T17:42:03.766Z,62.34
2022-08-30T17:44:33.945Z,61.70
2022-08-30T17:47:00.811Z,61.84
2022-08-30T17:49:29.038Z,62.29
2022-08-30T17:51:57.149Z,63.32
2022-08-30T17:54:26.741Z,62.87
2022-08-30T17:56:54.426Z,62.29
2022-08-30T17:59:25.026Z,61.76
2022-08-30T18:01:52.985Z,61.63
2022-08-30T18:04:20.477Z,60.73
2022-08-30T18:06:48.106Z,60.81
2022-08-30T18:09:16.054Z,60.59
2022-08-30T18:11:42.842Z,59.81
2022-08-30T18:14:11.365Z,59.55
2022-08-30T18:16:43.884Z,59.97
2022-08-30T18:19:19.105Z,59.71
2022-08-30T18:21:45.750Z,59.59
2022-08-30T18:24:12.632Z,59.96
2022-08-30T18:26:43.150Z,59.43
2022-08-30T18:29:11.058Z,59.50
2022-08-30T18:31:38.317Z,60.14
2022-08-30T18:34:06.161Z,59.67
2022-08-30T18:36:33.982Z,59.30
2022-08-30T18:39:00.845Z,59.38
2022-08-30T18:41:27.735Z,59.51
2022-08-30T18:44:17.155Z,59.60
2022-08-30T18:47:31.858Z,59.43
2022-08-30T18:49:32.545Z,58.77
2022-08-30T18:52:00.228Z,59.72
2022-08-30T18:54:28.089Z,60.16
2022-08-30T18:56:54.890Z,59.51
2022-08-30T18:59:21.640Z,58.64
2022-08-30T19:01:49.763Z,58.77
2022-08-30T19:04:22.304Z,58.90
2022-08-30T19:06:57.127Z,58.73
2022-08-30T19:09:24.326Z,58.19
2022-08-30T19:11:53.434Z,58.46
2022-08-30T19:14:20.138Z,58.38
2022-08-30T19:16:47.941Z,59.41
2022-08-30T19:19:14.722Z,58.84
2022-08-30T19:21:42.021Z,60.48
2022-08-30T19:24:09.316Z,59.69
2022-08-30T19:26:37.369Z,59.89
2022-08-30T19:29:05.984Z,59.50
2022-08-30T19:31:33.472Z,59.73
2022-08-30T19:34:00.809Z,59.59
2022-08-30T19:36:28.988Z,59.36
2022-08-30T19:38:56.049Z,59.18
2022-08-30T19:41:22.870Z,58.69
2022-08-30T19:43:51.582Z,58.27
2022-08-30T19:46:18.534Z,57.91
2022-08-30T19:48:45.333Z,58.52
2022-08-30T19:51:14.267Z,58.50
2022-08-30T19:53:42.087Z,57.42
2022-08-30T19:56:08.824Z,57.71
2022-08-30T19:58:35.604Z,57.84
2022-08-30T20:01:10.838Z,56.81
2022-08-30T20:03:39.839Z,56.22
2022-08-30T20:06:07.882Z,58.44
2022-08-30T20:08:35.793Z,59.65
2022-08-30T20:11:03.460Z,61.42
2022-08-30T20:13:30.073Z,61.06
2022-08-30T20:16:01.260Z,60.62
2022-08-30T20:18:28.894Z,59.91
2022-08-30T20:20:56.369Z,58.81
2022-08-30T20:23:25.477Z,58.19
2022-08-30T20:25:54.519Z,58.33
2022-08-30T20:28:22.341Z,58.97
2022-08-30T20:30:49.676Z,58.67
2022-08-30T20:33:16.941Z,58.38
2022-08-30T20:35:48.765Z,58.51
2022-08-30T20:38:21.335Z,58.25
2022-08-30T20:40:53.970Z,57.28
2022-08-30T20:43:22.968Z,57.18
2022-08-30T20:45:50.262Z,56.75
2022-08-30T20:48:17.712Z,57.26
2022-08-30T20:50:44.734Z,56.81
2022-08-30T20:53:12.251Z,58.83
2022-08-30T20:55:47.420Z,60.23
2022-08-30T20:58:15.210Z,60.25
2022-08-30T21:00:45.973Z,60.27
2022-08-30T21:03:27.375Z,60.12
2022-08-30T21:05:55.842Z,60.17
2022-08-30T21:08:22.708Z,59.82
2022-08-30T21:10:49.771Z,59.19
2022-08-30T21:13:17.309Z,58.70
2022-08-30T21:15:46.154Z,57.96
2022-08-30T21:18:13.869Z,57.60
2022-08-30T21:20:40.614Z,58.41
2022-08-30T21:23:07.380Z,58.25
2022-08-30T21:25:34.281Z,58.59
2022-08-30T21:28:01.354Z,58.90
2022-08-30T21:30:28.121Z,59.55
2022-08-30T21:32:55.184Z,59.10
2022-08-30T21:35:45.271Z,59.48
2022-08-30T21:38:11.947Z,58.90
2022-08-30T21:40:38.638Z,59.09
2022-08-30T21:43:07.532Z,59.01
2022-08-30T21:45:38.456Z,59.00
2022-08-30T21:48:05.762Z,59.20
2022-08-30T21:50:32.579Z,58.57
2022-08-30T21:52:59.411Z,58.61
2022-08-30T21:55:26.220Z,57.61
2022-08-30T21:57:54.718Z,57.37
2022-08-30T22:00:22.146Z,57.67
2022-08-30T22:02:52.453Z,56.57
2022-08-30T22:05:20.264Z,57.23
2022-08-30T22:07:46.963Z,57.37
2022-08-30T22:10:15.323Z,57.49
2022-08-30T22:12:41.936Z,57.34
2022-08-30T22:15:09.112Z,59.42
2022-08-30T22:17:35.734Z,58.69
2022-08-30T22:20:02.651Z,59.13
2022-08-30T22:22:29.343Z,59.43
2022-08-30T22:24:56.054Z,59.99
2022-08-30T22:27:22.703Z,59.73
2022-08-30T22:29:49.332Z,59.72
2022-08-30T22:32:16.084Z,60.43
2022-08-30T22:34:45.504Z,60.05
2022-08-30T22:37:12.180Z,60.38
2022-08-30T22:39:38.860Z,60.17
2022-08-30T22:42:05.834Z,60.16
2022-08-30T22:44:32.490Z,59.61
2022-08-30T22:47:00.785Z,59.42
2022-08-30T22:49:27.604Z,59.12
2022-08-30T22:51:54.456Z,58.77
2022-08-30T22:54:21.094Z,59.08
2022-08-30T22:56:47.814Z,60.76
2022-08-30T22:59:15.139Z,60.27
2022-08-30T23:01:43.328Z,59.71
2022-08-30T23:04:11.318Z,59.88
2022-08-30T23:06:38.058Z,60.47
2022-08-30T23:09:06.600Z,60.07
2022-08-30T23:11:34.051Z,60.09
2022-08-30T23:14:02.396Z,60.47
2022-08-30T23:16:29.244Z,61.31
2022-08-30T23:18:56.235Z,59.86
2022-08-30T23:21:27.190Z,59.79
2022-08-30T23:24:14.587Z,59.41
2022-08-30T23:27:01.758Z,59.53
2022-08-30T23:29:49.309Z,59.85
2022-08-30T23:32:34.981Z,59.71
2022-08-30T23:35:20.580Z,58.39
2022-08-30T23:38:12.108Z,58.69
2022-08-30T23:40:57.641Z,58.94
2022-08-30T23:43:42.922Z,58.54
2022-08-30T23:46:28.460Z,57.58
2022-08-30T23:49:14.108Z,57.75
2022-08-30T23:51:59.214Z,58.05
2022-08-30T23:54:44.725Z,58.82
2022-08-30T23:57:29.856Z,59.36
